Terminal Aerodrome Forecast
Issued by NWS

Home | Current Version | Previous Version | Text Only | Print | Product List | Glossary On
Versions: 1 2 3 4 5 6 7 8 9 10 11 12 13 14 15 16 17 18 19 20 21 22 23 24 25 26 27 28 29
000
FTUS41 KRNK 251607 AAB
TAFBCB
TAF AMD
KBCB 251607Z 2516/2612 04004KT 5SM -DZ OVC012
     FM260300 VRB03KT 5SM BR SCT003 BKN025
     FM260800 00000KT 1/2SM FG OVC003=

USA.gov is the U.S. government's official web portal to all federal, state and local government web resources and services.